createdAt,value
2022-12-19T00:01:32.067Z,-2.64
2022-12-19T00:04:00.457Z,-2.48
2022-12-19T00:06:28.203Z,-2.41
2022-12-19T00:08:55.706Z,-2.39
2022-12-19T00:11:23.894Z,-2.37
2022-12-19T00:13:50.645Z,-2.47
2022-12-19T00:16:19.929Z,-2.51
2022-12-19T00:18:47.769Z,-2.47
2022-12-19T00:21:20.391Z,-2.53
2022-12-19T00:23:47.424Z,-2.49
2022-12-19T00:26:17.253Z,-2.47
2022-12-19T00:28:49.509Z,-2.41
2022-12-19T00:31:18.139Z,-2.35
2022-12-19T00:33:46.854Z,-2.31
2022-12-19T00:36:17.027Z,-2.32
2022-12-19T00:38:51.128Z,-2.26
2022-12-19T00:41:29.616Z,-2.21
2022-12-19T00:43:58.246Z,-2.27
2022-12-19T00:46:24.997Z,-2.23
2022-12-19T00:48:51.497Z,-2.19
2022-12-19T00:51:20.562Z,-2.28
2022-12-19T00:53:48.827Z,-2.20
2022-12-19T00:56:20.784Z,-2.25
2022-12-19T00:58:47.664Z,-2.21
2022-12-19T01:01:17.756Z,-2.23
2022-12-19T01:04:04.271Z,-2.12
2022-12-19T01:06:31.622Z,-2.09
2022-12-19T01:08:58.213Z,-2.08
2022-12-19T01:11:43.757Z,-1.99
2022-12-19T01:14:19.076Z,-2.04
2022-12-19T01:16:47.359Z,-1.98
2022-12-19T01:19:13.721Z,-1.93
2022-12-19T01:21:40.020Z,-1.97
2022-12-19T01:24:06.964Z,-1.95
2022-12-19T01:26:33.580Z,-1.94
2022-12-19T01:28:59.917Z,-2.02
2022-12-19T01:31:27.257Z,-2.00
2022-12-19T01:33:55.016Z,-2.00
2022-12-19T01:36:22.749Z,-1.92
2022-12-19T01:38:49.057Z,-1.90
2022-12-19T01:41:15.443Z,-1.80
2022-12-19T01:43:58.636Z,-1.84
2022-12-19T01:46:30.821Z,-1.85
2022-12-19T01:48:57.477Z,-1.81
2022-12-19T01:51:28.287Z,-1.75
2022-12-19T01:53:59.889Z,-1.69
2022-12-19T01:56:31.573Z,-1.78
2022-12-19T01:59:05.775Z,-1.74
2022-12-19T02:01:43.405Z,-1.73
2022-12-19T02:04:21.600Z,-1.77
2022-12-19T02:06:48.611Z,-1.70
2022-12-19T02:09:15.775Z,-1.71
2022-12-19T02:11:42.290Z,-1.63
2022-12-19T02:14:08.763Z,-1.64
2022-12-19T02:16:47.205Z,-1.53
2022-12-19T02:20:01.298Z,-1.66
2022-12-19T02:22:49.882Z,-1.56
2022-12-19T02:25:38.218Z,-1.53
2022-12-19T02:28:21.298Z,-1.63
2022-12-19T02:31:19.433Z,-1.55
2022-12-19T02:34:07.513Z,-1.48
2022-12-19T02:36:46.829Z,-1.57
2022-12-19T02:39:22.275Z,-1.59
2022-12-19T02:41:57.321Z,-1.55
2022-12-19T02:44:29.990Z,-1.65
2022-12-19T02:46:58.596Z,-1.57
2022-12-19T02:49:30.766Z,-1.58
2022-12-19T02:52:09.022Z,-1.56
2022-12-19T02:54:39.589Z,-1.53
2022-12-19T02:57:34.857Z,-1.43
2022-12-19T03:00:06.363Z,-1.41
2022-12-19T03:03:00.830Z,-1.45
2022-12-19T03:05:56.888Z,-1.39
2022-12-19T03:08:42.769Z,-1.36
2022-12-19T03:11:13.364Z,-1.46
2022-12-19T03:13:54.513Z,-1.44
2022-12-19T03:16:21.088Z,-1.50
2022-12-19T03:18:47.576Z,-1.48
2022-12-19T03:21:20.895Z,-1.45
2022-12-19T03:23:50.162Z,-1.37
2022-12-19T03:26:19.898Z,-1.39
2022-12-19T03:29:05.147Z,-1.30
2022-12-19T03:31:33.771Z,-1.35
2022-12-19T03:34:06.749Z,-1.31
2022-12-19T03:36:40.359Z,-1.22
2022-12-19T03:39:10.120Z,-1.23
2022-12-19T03:41:57.680Z,-1.29
2022-12-19T03:44:27.551Z,-1.30
2022-12-19T03:47:11.431Z,-1.21
2022-12-19T03:49:37.938Z,-1.26
2022-12-19T03:52:26.015Z,-1.20
2022-12-19T03:55:05.738Z,-1.21
2022-12-19T03:57:41.812Z,-1.16
2022-12-19T04:00:12.740Z,-1.10
2022-12-19T04:02:43.028Z,-1.16
2022-12-19T04:05:14.500Z,-1.09
2022-12-19T04:07:41.865Z,-1.12
2022-12-19T04:10:14.805Z,-1.10
2022-12-19T04:12:47.238Z,-1.10
2022-12-19T04:15:14.997Z,-1.13
2022-12-19T04:17:48.373Z,-1.14
2022-12-19T04:20:17.739Z,-1.05
2022-12-19T04:22:52.444Z,-1.12
2022-12-19T04:25:29.357Z,-0.99
2022-12-19T04:28:02.410Z,-1.01
2022-12-19T04:30:28.928Z,-1.07
2022-12-19T04:32:56.624Z,-1.04
2022-12-19T04:35:22.955Z,-1.01
2022-12-19T04:37:49.476Z,-0.99
2022-12-19T04:40:15.840Z,-1.03
2022-12-19T04:42:42.147Z,-0.88
2022-12-19T04:45:09.304Z,-0.87
2022-12-19T04:47:35.873Z,-0.77
2022-12-19T04:50:02.141Z,-0.82
2022-12-19T04:52:28.443Z,-0.84
2022-12-19T04:54:54.819Z,-0.84
2022-12-19T04:57:21.296Z,-0.86
2022-12-19T04:59:47.800Z,-0.89
2022-12-19T05:02:14.179Z,-0.86
2022-12-19T05:04:40.700Z,-0.79
2022-12-19T05:07:06.993Z,-0.79
2022-12-19T05:09:33.955Z,-0.65
2022-12-19T05:12:03.301Z,-0.71
2022-12-19T05:14:29.667Z,-0.69
2022-12-19T05:17:01.420Z,-0.73
2022-12-19T05:19:28.497Z,-0.72
2022-12-19T05:21:54.874Z,-0.69
2022-12-19T05:24:21.316Z,-0.72
2022-12-19T05:26:49.008Z,-0.69
2022-12-19T05:29:16.092Z,-0.76
2022-12-19T05:31:42.979Z,-0.68
2022-12-19T05:34:09.296Z,-0.74
2022-12-19T05:36:35.607Z,-0.64
2022-12-19T05:39:01.898Z,-0.67
2022-12-19T05:41:28.363Z,-0.68
2022-12-19T05:43:56.185Z,-0.71
2022-12-19T05:46:23.478Z,-0.60
2022-12-19T05:48:50.071Z,-0.67
2022-12-19T05:51:16.898Z,-0.65
2022-12-19T05:53:43.321Z,-0.75
2022-12-19T05:56:13.326Z,-0.68
2022-12-19T05:58:41.375Z,-0.69
2022-12-19T06:01:12.552Z,-0.64
2022-12-19T06:03:38.973Z,-0.60
2022-12-19T06:06:07.946Z,-0.60
2022-12-19T06:08:34.351Z,-0.66
2022-12-19T06:11:02.882Z,-0.65
2022-12-19T06:13:29.801Z,-0.52
2022-12-19T06:16:01.281Z,-0.57
2022-12-19T06:18:28.174Z,-0.57
2022-12-19T06:21:03.337Z,-0.53
2022-12-19T06:23:31.426Z,-0.57
2022-12-19T06:25:59.066Z,-0.57
2022-12-19T06:28:26.992Z,-0.56
2022-12-19T06:30:56.233Z,-0.51
2022-12-19T06:33:23.025Z,-0.57
2022-12-19T06:35:57.398Z,-0.51
2022-12-19T06:38:23.688Z,-0.44
2022-12-19T06:41:16.337Z,-0.60
2022-12-19T06:43:42.858Z,-0.55
2022-12-19T06:46:09.627Z,-0.59
2022-12-19T06:48:36.501Z,-0.52
2022-12-19T06:51:02.812Z,-0.46
2022-12-19T06:53:29.436Z,-0.45
2022-12-19T06:55:57.848Z,-0.43
2022-12-19T06:58:24.632Z,-0.40
2022-12-19T07:00:51.878Z,-0.46
2022-12-19T07:03:22.932Z,-0.43
2022-12-19T07:05:49.903Z,-0.49
2022-12-19T07:08:16.331Z,-0.49
2022-12-19T07:10:42.762Z,-0.38
2022-12-19T07:13:09.122Z,-0.37
2022-12-19T07:15:36.294Z,-0.40
2022-12-19T07:18:05.588Z,-0.25
2022-12-19T07:20:33.895Z,-0.24
2022-12-19T07:23:01.623Z,-0.27
2022-12-19T07:25:27.978Z,-0.23
2022-12-19T07:27:54.335Z,-0.24
2022-12-19T07:30:20.704Z,-0.28
2022-12-19T07:32:47.010Z,-0.37
2022-12-19T07:35:14.134Z,-0.35
2022-12-19T07:37:40.571Z,-0.28
2022-12-19T07:40:07.340Z,-0.25
2022-12-19T07:42:34.116Z,-0.29
2022-12-19T07:45:01.325Z,-0.21
2022-12-19T07:47:27.770Z,-0.29
2022-12-19T07:49:54.100Z,-0.23
2022-12-19T07:52:20.409Z,-0.25
2022-12-19T07:54:46.905Z,-0.21
2022-12-19T07:57:13.224Z,-0.09
2022-12-19T07:59:39.673Z,-0.13
2022-12-19T08:02:06.536Z,-0.17
2022-12-19T08:04:34.253Z,-0.20
2022-12-19T08:07:02.202Z,-0.20
2022-12-19T08:09:28.695Z,-0.07
2022-12-19T08:11:55.174Z,-0.15
2022-12-19T08:14:21.643Z,-0.13
2022-12-19T08:17:18.777Z,-0.13
2022-12-19T08:19:34.214Z,-0.05
2022-12-19T08:22:00.549Z,-0.13
2022-12-19T08:24:26.857Z,-0.06
2022-12-19T08:26:53.179Z,-0.09
2022-12-19T08:29:19.538Z,-0.03
2022-12-19T08:31:45.894Z,-0.09
2022-12-19T08:34:12.215Z,-0.03
2022-12-19T08:36:39.364Z,-0.10
2022-12-19T08:39:06.204Z,-0.29
2022-12-19T08:41:32.644Z,-0.05
2022-12-19T08:43:59.017Z,-0.14
2022-12-19T08:46:27.111Z,-0.02
2022-12-19T08:48:53.524Z,0.03
2022-12-19T08:51:20.402Z,-0.04
2022-12-19T08:53:47.348Z,-0.03
2022-12-19T08:56:17.533Z,0.02
2022-12-19T08:58:44.122Z,0.05
2022-12-19T09:01:16.283Z,0.07
2022-12-19T09:04:09.963Z,0.08
2022-12-19T09:06:29.245Z,0.06
2022-12-19T09:09:00.198Z,0.10
2022-12-19T09:11:26.793Z,0.07
2022-12-19T09:13:57.003Z,0.13
2022-12-19T09:16:25.242Z,0.14
2022-12-19T09:18:53.653Z,0.11
2022-12-19T09:21:22.302Z,0.01
2022-12-19T09:24:03.479Z,0.05
2022-12-19T09:26:35.396Z,0.15
2022-12-19T09:29:02.220Z,0.17
2022-12-19T09:31:29.358Z,0.10
2022-12-19T09:33:55.894Z,0.08
2022-12-19T09:36:31.476Z,-0.22
2022-12-19T09:38:58.785Z,0.24
2022-12-19T09:41:43.785Z,0.25
2022-12-19T09:44:35.163Z,0.25
2022-12-19T09:47:11.962Z,0.26
2022-12-19T09:49:42.611Z,0.21
2022-12-19T09:52:17.196Z,0.17
2022-12-19T09:54:55.934Z,0.21
2022-12-19T09:57:32.557Z,0.19
2022-12-19T10:00:15.088Z,0.21
2022-12-19T10:02:58.002Z,0.27
2022-12-19T10:06:00.422Z,0.15
2022-12-19T10:10:05.542Z,0.24
2022-12-19T10:12:45.864Z,0.23
2022-12-19T10:14:59.959Z,0.15
2022-12-19T10:18:01.413Z,0.17
2022-12-19T10:20:33.961Z,0.25
2022-12-19T10:23:20.353Z,0.24
2022-12-19T10:25:54.326Z,0.38
2022-12-19T10:28:20.596Z,0.40
2022-12-19T10:31:20.994Z,0.29
2022-12-19T10:33:48.380Z,0.21
2022-12-19T10:36:15.458Z,0.21
2022-12-19T10:39:00.904Z,0.26
2022-12-19T10:41:32.263Z,0.33
2022-12-19T10:44:08.116Z,0.26
2022-12-19T10:46:41.976Z,0.29
2022-12-19T10:49:16.965Z,0.32
2022-12-19T10:51:55.763Z,0.33
2022-12-19T10:54:37.268Z,0.35
2022-12-19T10:57:22.738Z,0.28
2022-12-19T11:00:03.858Z,0.37
2022-12-19T11:02:45.414Z,0.38
2022-12-19T11:05:25.773Z,0.27
2022-12-19T11:08:06.769Z,0.39
2022-12-19T11:13:08.485Z,0.29
2022-12-19T11:19:13.542Z,0.40
2022-12-19T11:21:50.590Z,0.43
2022-12-19T11:29:19.253Z,0.48
2022-12-19T11:29:26.987Z,0.45
2022-12-19T11:30:40.970Z,0.48
2022-12-19T11:30:41.453Z,0.46
2022-12-19T11:34:18.335Z,0.51
2022-12-19T11:36:47.694Z,0.39
2022-12-19T11:39:45.288Z,0.37
2022-12-19T11:42:37.347Z,0.43
2022-12-19T11:45:30.839Z,0.55
2022-12-19T11:48:15.568Z,0.57
2022-12-19T11:51:01.938Z,0.70
2022-12-19T11:54:07.331Z,0.60
2022-12-19T11:56:33.811Z,0.64
2022-12-19T11:59:07.412Z,0.68
2022-12-19T12:01:40.406Z,0.65
2022-12-19T12:04:45.201Z,0.69
2022-12-19T12:07:41.554Z,0.79
2022-12-19T12:13:13.662Z,0.78
2022-12-19T12:23:19.575Z,0.83
2022-12-19T12:27:55.214Z,0.87
2022-12-19T12:31:00.704Z,0.94
2022-12-19T12:31:10.656Z,0.99
2022-12-19T12:31:48.511Z,0.88
2022-12-19T12:31:56.211Z,0.94
2022-12-19T12:35:48.614Z,1.01
2022-12-19T12:38:18.788Z,1.11
2022-12-19T12:40:48.509Z,1.09
2022-12-19T12:44:00.553Z,1.04
2022-12-19T12:46:35.007Z,1.11
2022-12-19T12:49:15.333Z,1.06
2022-12-19T12:51:41.955Z,1.07
2022-12-19T12:54:14.012Z,1.07
2022-12-19T12:56:42.053Z,1.12
2022-12-19T12:59:24.171Z,1.20
2022-12-19T13:01:53.390Z,1.23
2022-12-19T13:04:24.359Z,1.17
2022-12-19T13:06:50.633Z,1.28
2022-12-19T13:09:20.027Z,1.29
2022-12-19T13:12:36.609Z,1.31
2022-12-19T13:15:29.699Z,1.31
2022-12-19T13:17:55.987Z,1.32
2022-12-19T13:20:25.251Z,1.29
2022-12-19T13:23:19.582Z,1.35
2022-12-19T13:25:49.529Z,1.36
2022-12-19T13:28:37.854Z,1.39
2022-12-19T13:31:19.337Z,1.35
2022-12-19T13:33:51.533Z,1.32
2022-12-19T13:39:49.007Z,1.35
2022-12-19T13:40:10.965Z,1.31
2022-12-19T13:43:11.345Z,1.36
2022-12-19T13:45:40.977Z,1.37
2022-12-19T13:48:15.555Z,1.43
2022-12-19T13:50:43.386Z,1.44
2022-12-19T13:53:16.261Z,1.36
2022-12-19T13:55:42.575Z,1.42
2022-12-19T13:58:28.816Z,1.44
2022-12-19T14:01:01.105Z,1.48
2022-12-19T14:03:41.015Z,1.48
2022-12-19T14:06:20.411Z,1.48
2022-12-19T14:09:41.469Z,1.48
2022-12-19T14:13:39.767Z,1.45
2022-12-19T14:14:49.344Z,1.43
2022-12-19T14:17:35.623Z,1.40
2022-12-19T14:22:01.896Z,1.37
2022-12-19T14:23:04.364Z,1.26
2022-12-19T14:28:14.360Z,1.28
2022-12-19T14:28:40.324Z,1.27
2022-12-19T14:31:14.587Z,1.02
2022-12-19T14:34:18.410Z,1.11
2022-12-19T14:36:39.934Z,0.87
2022-12-19T14:39:24.998Z,0.93
2022-12-19T14:42:19.154Z,1.01
2022-12-19T14:52:25.565Z,1.09
2022-12-19T14:52:26.128Z,1.02
2022-12-19T14:54:04.065Z,1.03
2022-12-19T14:54:35.861Z,0.97
2022-12-19T14:59:00.576Z,0.84
2022-12-19T15:01:33.028Z,0.78
2022-12-19T15:04:52.057Z,0.74
2022-12-19T15:07:07.807Z,0.85
2022-12-19T15:11:09.160Z,0.73
2022-12-19T15:14:54.529Z,0.86
2022-12-19T15:16:26.651Z,0.75
2022-12-19T15:18:57.063Z,0.78
2022-12-19T15:21:23.930Z,0.68
2022-12-19T15:23:50.341Z,0.72
2022-12-19T15:26:19.911Z,0.71
2022-12-19T15:28:50.070Z,0.77
2022-12-19T15:31:40.485Z,0.95
2022-12-19T15:36:57.665Z,1.07
2022-12-19T15:39:25.898Z,0.94
2022-12-19T15:41:53.812Z,0.99
2022-12-19T15:44:26.153Z,0.63
2022-12-19T15:46:52.569Z,0.82
2022-12-19T15:49:21.328Z,0.78
2022-12-19T15:51:48.460Z,0.80
2022-12-19T15:54:47.862Z,0.68
2022-12-19T15:57:01.459Z,0.88
2022-12-19T15:59:41.477Z,0.90
2022-12-19T16:02:18.672Z,0.95
2022-12-19T16:04:47.500Z,1.00
2022-12-19T16:07:16.257Z,0.85
2022-12-19T16:09:42.619Z,0.87
2022-12-19T16:12:14.240Z,0.89
2022-12-19T16:14:40.772Z,0.89
2022-12-19T16:17:13.148Z,0.81
2022-12-19T16:19:39.534Z,0.90
2022-12-19T16:22:17.750Z,0.90
2022-12-19T16:24:44.105Z,0.57
2022-12-19T16:27:19.136Z,0.53
2022-12-19T16:29:46.076Z,0.73
2022-12-19T16:32:13.626Z,0.70
2022-12-19T16:34:39.929Z,0.60
2022-12-19T16:37:06.438Z,0.57
2022-12-19T16:39:32.811Z,0.68
2022-12-19T16:41:59.320Z,0.61
2022-12-19T16:44:25.703Z,0.70
2022-12-19T16:46:52.362Z,0.52
2022-12-19T16:49:24.621Z,0.79
2022-12-19T16:51:51.774Z,0.87
2022-12-19T16:54:19.869Z,0.56
2022-12-19T16:56:49.587Z,0.49
2022-12-19T16:59:22.547Z,0.73
2022-12-19T17:01:49.555Z,0.72
2022-12-19T17:04:19.370Z,0.64
2022-12-19T17:06:46.099Z,0.49
2022-12-19T17:09:18.158Z,0.42
2022-12-19T17:11:48.189Z,0.67
2022-12-19T17:14:26.917Z,0.89
2022-12-19T17:16:55.368Z,0.91
2022-12-19T17:19:25.852Z,0.86
2022-12-19T17:21:52.237Z,0.86
2022-12-19T17:24:18.923Z,0.95
2022-12-19T17:26:47.143Z,0.77
2022-12-19T17:29:14.057Z,0.86
2022-12-19T17:31:41.683Z,0.76
2022-12-19T17:34:25.964Z,0.87
2022-12-19T17:36:52.276Z,0.82
2022-12-19T17:39:21.763Z,0.86
2022-12-19T17:41:52.396Z,0.69
2022-12-19T17:44:18.995Z,0.73
2022-12-19T17:46:47.243Z,0.87
2022-12-19T17:49:21.402Z,0.88
2022-12-19T17:51:52.099Z,0.68
2022-12-19T17:54:19.915Z,0.79
2022-12-19T17:56:46.253Z,0.75
2022-12-19T17:59:12.656Z,0.54
2022-12-19T18:01:41.633Z,0.54
2022-12-19T18:04:16.675Z,0.47
2022-12-19T18:06:43.018Z,0.61
2022-12-19T18:09:19.610Z,0.51
2022-12-19T18:11:47.269Z,0.50
2022-12-19T18:14:14.279Z,0.67
2022-12-19T18:16:41.216Z,0.56
2022-12-19T18:19:17.158Z,0.74
2022-12-19T18:21:43.477Z,0.73
2022-12-19T18:24:11.933Z,0.80
2022-12-19T18:26:38.534Z,0.86
2022-12-19T18:29:04.880Z,0.82
2022-12-19T18:31:31.303Z,1.00
2022-12-19T18:34:07.015Z,0.97
2022-12-19T18:36:40.514Z,0.93
2022-12-19T18:39:19.508Z,0.84
2022-12-19T18:41:45.879Z,0.89
2022-12-19T18:44:12.239Z,0.80
2022-12-19T18:46:38.805Z,0.85
2022-12-19T18:49:06.367Z,0.65
2022-12-19T18:51:32.938Z,0.65
2022-12-19T18:53:59.946Z,0.72
2022-12-19T18:56:26.264Z,0.69
2022-12-19T18:58:52.562Z,0.68
2022-12-19T19:01:21.428Z,0.84
2022-12-19T19:03:53.005Z,0.79
2022-12-19T19:06:23.050Z,0.85
2022-12-19T19:08:51.420Z,0.86
2022-12-19T19:11:42.288Z,0.73
2022-12-19T19:14:09.083Z,0.71
2022-12-19T19:16:36.339Z,0.84
2022-12-19T19:19:06.793Z,0.83
2022-12-19T19:21:34.743Z,0.90
2022-12-19T19:24:10.513Z,0.88
2022-12-19T19:26:36.977Z,0.75
2022-12-19T19:29:03.463Z,0.95
2022-12-19T19:31:34.263Z,1.03
2022-12-19T19:34:25.625Z,0.87
2022-12-19T19:36:55.781Z,0.76
2022-12-19T19:39:22.728Z,0.80
2022-12-19T19:41:49.128Z,0.79
2022-12-19T19:44:15.517Z,0.92
2022-12-19T19:46:41.845Z,0.81
2022-12-19T19:49:08.247Z,1.11
2022-12-19T19:51:34.559Z,0.96
2022-12-19T19:54:00.866Z,0.98
2022-12-19T19:56:27.195Z,0.88
2022-12-19T19:58:55.137Z,1.05
2022-12-19T20:01:21.556Z,0.97
2022-12-19T20:03:49.273Z,1.16
2022-12-19T20:06:16.256Z,1.05
2022-12-19T20:08:42.559Z,1.06
2022-12-19T20:11:10.418Z,1.13
2022-12-19T20:13:37.586Z,1.13
2022-12-19T20:16:06.720Z,1.01
2022-12-19T20:18:33.862Z,1.06
2022-12-19T20:21:00.274Z,1.07
2022-12-19T20:23:26.916Z,1.11
2022-12-19T20:25:53.411Z,0.98
2022-12-19T20:28:19.984Z,1.04
2022-12-19T20:30:47.143Z,1.02
2022-12-19T20:33:13.559Z,0.78
2022-12-19T20:35:39.990Z,0.82
2022-12-19T20:38:06.402Z,0.88
2022-12-19T20:40:32.682Z,0.76
2022-12-19T20:42:59.228Z,0.65
2022-12-19T20:45:25.556Z,0.79
2022-12-19T20:47:51.865Z,0.88
2022-12-19T20:50:18.188Z,0.86
2022-12-19T20:52:44.702Z,0.95
2022-12-19T20:55:11.128Z,0.91
2022-12-19T20:57:37.456Z,1.02
2022-12-19T21:00:06.004Z,1.21
2022-12-19T21:02:52.566Z,1.13
2022-12-19T21:05:20.383Z,1.04
2022-12-19T21:07:46.784Z,1.03
2022-12-19T21:10:13.150Z,0.95
2022-12-19T21:12:43.822Z,0.94
2022-12-19T21:15:13.885Z,0.98
2022-12-19T21:17:40.184Z,0.93
2022-12-19T21:20:07.230Z,0.87
2022-12-19T21:22:33.569Z,0.88
2022-12-19T21:24:59.876Z,0.91
2022-12-19T21:27:26.246Z,0.96
2022-12-19T21:29:52.589Z,0.87
2022-12-19T21:32:19.421Z,0.91
2022-12-19T21:34:45.804Z,0.96
2022-12-19T21:37:12.126Z,0.81
2022-12-19T21:39:38.463Z,0.83
2022-12-19T21:42:04.986Z,1.00
2022-12-19T21:44:31.288Z,1.03
2022-12-19T21:46:57.798Z,1.04
2022-12-19T21:49:24.184Z,1.07
2022-12-19T21:51:50.554Z,1.02
2022-12-19T21:54:16.857Z,0.90
2022-12-19T21:56:45.478Z,0.93
2022-12-19T21:59:14.436Z,1.09
2022-12-19T22:01:42.272Z,1.20
2022-12-19T22:04:15.310Z,1.24
2022-12-19T22:06:41.829Z,1.09
2022-12-19T22:09:12.004Z,1.00
2022-12-19T22:11:38.632Z,1.12
2022-12-19T22:14:05.727Z,1.11
2022-12-19T22:16:33.233Z,1.21
2022-12-19T22:18:59.764Z,0.96
2022-12-19T22:21:26.598Z,1.16
2022-12-19T22:23:56.648Z,1.30
2022-12-19T22:26:24.569Z,1.04
2022-12-19T22:28:53.307Z,1.22
2022-12-19T22:31:23.714Z,1.19
2022-12-19T22:33:52.401Z,1.23
2022-12-19T22:36:27.325Z,1.36
2022-12-19T22:38:54.640Z,1.34
2022-12-19T22:41:21.044Z,1.26
2022-12-19T22:43:47.769Z,1.28
2022-12-19T22:46:19.576Z,1.14
2022-12-19T22:48:46.826Z,0.99
2022-12-19T22:51:14.846Z,0.94
2022-12-19T22:53:42.014Z,1.13
2022-12-19T22:56:13.190Z,1.29
2022-12-19T22:58:40.390Z,1.15
2022-12-19T23:01:12.975Z,1.27
2022-12-19T23:03:39.716Z,1.25
2022-12-19T23:06:06.278Z,1.25
2022-12-19T23:08:32.601Z,1.12
2022-12-19T23:10:58.917Z,1.08
2022-12-19T23:13:25.563Z,1.11
2022-12-19T23:15:52.069Z,1.21
2022-12-19T23:18:18.383Z,0.94
2022-12-19T23:20:44.716Z,1.09
2022-12-19T23:23:11.003Z,1.22
2022-12-19T23:25:39.090Z,1.36
2022-12-19T23:28:06.594Z,1.32
2022-12-19T23:30:33.014Z,1.24
2022-12-19T23:33:00.690Z,1.30
2022-12-19T23:35:27.921Z,1.37
2022-12-19T23:37:54.195Z,1.23
2022-12-19T23:40:20.502Z,1.27
2022-12-19T23:42:46.815Z,1.21
2022-12-19T23:45:13.163Z,1.21
2022-12-19T23:47:40.103Z,1.31
2022-12-19T23:50:07.157Z,1.36
2022-12-19T23:52:33.826Z,1.34
2022-12-19T23:55:00.111Z,1.40
2022-12-19T23:57:26.436Z,1.19
2022-12-19T23:59:52.730Z,1.35
